sensor_id;sensor_type;location;lat;lon;timestamp;pressure;altitude;pressure_sealevel;temperature;humidity
60228;BME280;46091;46.512;6.626;2023-03-25T00:00:20;96880.53;;;14.35;54.50
60228;BME280;46091;46.512;6.626;2023-03-25T00:02:25;96880.53;;;14.35;54.81
60228;BME280;46091;46.512;6.626;2023-03-25T00:04:30;96887.50;;;14.36;54.70
60228;BME280;46091;46.512;6.626;2023-03-25T00:06:35;96890.75;;;14.38;54.81
60228;BME280;46091;46.512;6.626;2023-03-25T00:08:41;96892.41;;;14.39;54.57
60228;BME280;46091;46.512;6.626;2023-03-25T00:10:44;96902.59;;;14.42;54.60
60228;BME280;46091;46.512;6.626;2023-03-25T00:12:47;96903.63;;;14.41;54.75
60228;BME280;46091;46.512;6.626;2023-03-25T00:14:51;96896.88;;;14.38;54.91
60228;BME280;46091;46.512;6.626;2023-03-25T00:16:56;96897.91;;;14.37;54.98
60228;BME280;46091;46.512;6.626;2023-03-25T00:18:59;96897.91;;;14.37;54.71
60228;BME280;46091;46.512;6.626;2023-03-25T00:21:03;96889.13;;;14.37;54.94
60228;BME280;46091;46.512;6.626;2023-03-25T00:23:08;96893.84;;;14.35;54.92
60228;BME280;46091;46.512;6.626;2023-03-25T00:25:13;96892.44;;;14.32;55.01
60228;BME280;46091;46.512;6.626;2023-03-25T00:27:18;96889.41;;;14.28;55.05
60228;BME280;46091;46.512;6.626;2023-03-25T00:29:21;96892.47;;;14.25;54.95
60228;BME280;46091;46.512;6.626;2023-03-25T00:31:25;96895.94;;;14.26;55.16
60228;BME280;46091;46.512;6.626;2023-03-25T00:33:29;96892.91;;;14.22;55.12
60228;BME280;46091;46.512;6.626;2023-03-25T00:35:32;96898.22;;;14.22;55.03
60228;BME280;46091;46.512;6.626;2023-03-25T00:37:36;96891.91;;;14.17;55.12
60228;BME280;46091;46.512;6.626;2023-03-25T00:39:39;96872.28;;;14.18;55.01
60228;BME280;46091;46.512;6.626;2023-03-25T00:41:41;96889.25;;;14.17;55.01
60228;BME280;46091;46.512;6.626;2023-03-25T00:43:44;96889.63;;;14.20;55.23
60228;BME280;46091;46.512;6.626;2023-03-25T00:45:47;96880.41;;;14.23;55.04
60228;BME280;46091;46.512;6.626;2023-03-25T00:47:52;96881.00;;;14.25;54.87
60228;BME280;46091;46.512;6.626;2023-03-25T00:49:55;96885.28;;;14.26;54.78
60228;BME280;46091;46.512;6.626;2023-03-25T00:51:57;96886.53;;;14.30;54.88
60228;BME280;46091;46.512;6.626;2023-03-25T00:54:00;96869.16;;;14.27;54.59
60228;BME280;46091;46.512;6.626;2023-03-25T00:56:05;96873.84;;;14.25;54.88
60228;BME280;46091;46.512;6.626;2023-03-25T00:58:08;96864.25;;;14.24;54.75
60228;BME280;46091;46.512;6.626;2023-03-25T01:00:13;96860.41;;;14.20;54.65
60228;BME280;46091;46.512;6.626;2023-03-25T01:02:16;96849.97;;;14.19;54.72
60228;BME280;46091;46.512;6.626;2023-03-25T01:04:20;96851.16;;;14.23;54.72
60228;BME280;46091;46.512;6.626;2023-03-25T01:06:25;96850.13;;;14.24;54.36
60228;BME280;46091;46.512;6.626;2023-03-25T01:08:30;96852.78;;;14.24;54.61
60228;BME280;46091;46.512;6.626;2023-03-25T01:10:34;96850.72;;;14.26;54.42
60228;BME280;46091;46.512;6.626;2023-03-25T01:12:37;96846.03;;;14.28;54.49
60228;BME280;46091;46.512;6.626;2023-03-25T01:14:41;96850.91;;;14.31;54.10
60228;BME280;46091;46.512;6.626;2023-03-25T01:16:44;96849.44;;;14.35;54.12
60228;BME280;46091;46.512;6.626;2023-03-25T01:18:47;96854.31;;;14.38;54.15
60228;BME280;46091;46.512;6.626;2023-03-25T01:20:52;96854.72;;;14.42;54.31
60228;BME280;46091;46.512;6.626;2023-03-25T01:22:54;96869.88;;;14.41;54.21
60228;BME280;46091;46.512;6.626;2023-03-25T01:24:57;96860.28;;;14.40;54.01
60228;BME280;46091;46.512;6.626;2023-03-25T01:27:00;96858.03;;;14.37;53.92
60228;BME280;46091;46.512;6.626;2023-03-25T01:29:03;96864.81;;;14.33;54.31
60228;BME280;46091;46.512;6.626;2023-03-25T01:31:07;96859.16;;;14.23;54.00
60228;BME280;46091;46.512;6.626;2023-03-25T01:33:11;96855.75;;;14.09;54.02
60228;BME280;46091;46.512;6.626;2023-03-25T01:35:14;96851.56;;;13.88;54.04
60228;BME280;46091;46.512;6.626;2023-03-25T01:37:19;96868.19;;;13.77;54.34
60228;BME280;46091;46.512;6.626;2023-03-25T01:39:23;96865.13;;;13.74;54.05
60228;BME280;46091;46.512;6.626;2023-03-25T01:41:26;96854.50;;;13.74;54.07
60228;BME280;46091;46.512;6.626;2023-03-25T01:44:03;96846.94;;;13.77;54.20
60228;BME280;46091;46.512;6.626;2023-03-25T01:46:10;96843.25;;;13.78;54.06
60228;BME280;46091;46.512;6.626;2023-03-25T01:48:17;96850.63;;;13.76;54.24
60228;BME280;46091;46.512;6.626;2023-03-25T01:50:23;96850.63;;;13.76;54.33
60228;BME280;46091;46.512;6.626;2023-03-25T01:52:31;96852.25;;;13.77;54.32
60228;BME280;46091;46.512;6.626;2023-03-25T01:54:34;96853.06;;;13.78;54.29
60228;BME280;46091;46.512;6.626;2023-03-25T01:56:39;96851.41;;;13.83;54.33
60228;BME280;46091;46.512;6.626;2023-03-25T01:58:43;96842.41;;;13.84;54.17
60228;BME280;46091;46.512;6.626;2023-03-25T02:00:47;96844.03;;;13.85;54.04
60228;BME280;46091;46.512;6.626;2023-03-25T02:02:51;96832.97;;;13.88;54.12
60228;BME280;46091;46.512;6.626;2023-03-25T02:05:02;96837.25;;;13.89;54.34
60228;BME280;46091;46.512;6.626;2023-03-25T02:07:07;96827.22;;;13.91;54.13
60228;BME280;46091;46.512;6.626;2023-03-25T02:09:15;96832.53;;;13.91;54.43
60228;BME280;46091;46.512;6.626;2023-03-25T02:11:19;96833.75;;;13.95;54.24
60228;BME280;46091;46.512;6.626;2023-03-25T02:13:22;96826.38;;;13.97;54.16
60228;BME280;46091;46.512;6.626;2023-03-25T02:15:25;96822.69;;;13.98;54.17
60228;BME280;46091;46.512;6.626;2023-03-25T02:17:33;96820.63;;;14.01;53.91
60228;BME280;46091;46.512;6.626;2023-03-25T02:22:25;96818.16;;;14.06;54.12
60228;BME280;46091;46.512;6.626;2023-03-25T02:25:11;96822.22;;;14.08;53.90
60228;BME280;46091;46.512;6.626;2023-03-25T02:27:23;96825.69;;;14.09;53.67
60228;BME280;46091;46.512;6.626;2023-03-25T02:32:11;96829.41;;;14.01;53.89
60228;BME280;46091;46.512;6.626;2023-03-25T02:34:29;96834.34;;;13.97;53.90
60228;BME280;46091;46.512;6.626;2023-03-25T02:37:00;96840.28;;;13.93;53.62
60228;BME280;46091;46.512;6.626;2023-03-25T02:39:10;96841.97;;;13.87;54.03
60228;BME280;46091;46.512;6.626;2023-03-25T02:41:19;96852.66;;;13.74;53.97
60228;BME280;46091;46.512;6.626;2023-03-25T02:43:29;96846.13;;;13.70;54.06
60228;BME280;46091;46.512;6.626;2023-03-25T02:45:38;96845.72;;;13.73;54.19
60228;BME280;46091;46.512;6.626;2023-03-25T02:47:45;96837.31;;;13.76;54.13
60228;BME280;46091;46.512;6.626;2023-03-25T02:49:53;96837.94;;;13.78;54.10
60228;BME280;46091;46.512;6.626;2023-03-25T02:51:59;96848.13;;;13.81;53.79
60228;BME280;46091;46.512;6.626;2023-03-25T02:54:07;96833.22;;;13.80;53.80
60228;BME280;46091;46.512;6.626;2023-03-25T02:56:15;96836.69;;;13.81;53.71
60228;BME280;46091;46.512;6.626;2023-03-25T02:58:23;96828.94;;;13.79;54.02
60228;BME280;46091;46.512;6.626;2023-03-25T03:00:28;96825.44;;;13.79;54.08
60228;BME280;46091;46.512;6.626;2023-03-25T03:02:32;96821.56;;;13.81;53.92
60228;BME280;46091;46.512;6.626;2023-03-25T03:04:46;96816.22;;;13.81;54.00
60228;BME280;46091;46.512;6.626;2023-03-25T03:06:50;96820.34;;;13.84;53.95
60228;BME280;46091;46.512;6.626;2023-03-25T03:09:14;96828.53;;;13.82;53.81
60228;BME280;46091;46.512;6.626;2023-03-25T03:11:27;96832.00;;;13.83;53.71
60228;BME280;46091;46.512;6.626;2023-03-25T03:13:40;96835.47;;;13.83;53.84
60228;BME280;46091;46.512;6.626;2023-03-25T03:15:52;96834.44;;;13.84;53.85
60228;BME280;46091;46.512;6.626;2023-03-25T03:18:07;96827.06;;;13.86;53.95
60228;BME280;46091;46.512;6.626;2023-03-25T03:20:16;96827.28;;;13.85;53.63
60228;BME280;46091;46.512;6.626;2023-03-25T03:22:32;96829.34;;;13.83;53.90
60228;BME280;46091;46.512;6.626;2023-03-25T03:24:39;96835.47;;;13.83;53.95
60228;BME280;46091;46.512;6.626;2023-03-25T03:26:47;96842.41;;;13.84;53.79
60228;BME280;46091;46.512;6.626;2023-03-25T03:28:58;96843.59;;;13.88;54.04
60228;BME280;46091;46.512;6.626;2023-03-25T03:31:05;96831.34;;;13.87;53.70
60228;BME280;46091;46.512;6.626;2023-03-25T03:33:13;96830.91;;;13.90;53.68
60228;BME280;46091;46.512;6.626;2023-03-25T03:35:21;96838.06;;;13.90;54.01
60228;BME280;46091;46.512;6.626;2023-03-25T03:37:29;96844.19;;;13.90;53.72
60228;BME280;46091;46.512;6.626;2023-03-25T03:39:35;96832.97;;;13.88;53.64
60228;BME280;46091;46.512;6.626;2023-03-25T03:41:40;96843.97;;;13.92;53.72
60228;BME280;46091;46.512;6.626;2023-03-25T03:43:49;96829.66;;;13.93;53.78
60228;BME280;46091;46.512;6.626;2023-03-25T03:45:57;96838.66;;;13.92;54.14
60228;BME280;46091;46.512;6.626;2023-03-25T03:48:05;96837.44;;;13.94;53.82
60228;BME280;46091;46.512;6.626;2023-03-25T03:50:13;96833.75;;;13.95;53.91
60228;BME280;46091;46.512;6.626;2023-03-25T03:52:21;96833.75;;;13.95;53.77
60228;BME280;46091;46.512;6.626;2023-03-25T03:54:28;96831.50;;;13.92;53.84
60228;BME280;46091;46.512;6.626;2023-03-25T03:56:34;96830.50;;;13.93;53.85
60228;BME280;46091;46.512;6.626;2023-03-25T03:58:42;96841.72;;;13.95;54.00
60228;BME280;46091;46.512;6.626;2023-03-25T04:00:49;96839.88;;;13.96;54.15
60228;BME280;46091;46.512;6.626;2023-03-25T04:02:54;96846.03;;;13.96;53.98
60228;BME280;46091;46.512;6.626;2023-03-25T04:04:59;96844.38;;;13.95;53.97
60228;BME280;46091;46.512;6.626;2023-03-25T04:07:04;96834.78;;;13.94;53.95
60228;BME280;46091;46.512;6.626;2023-03-25T04:09:16;96844.38;;;13.95;53.97
60228;BME280;46091;46.512;6.626;2023-03-25T04:11:32;96833.31;;;13.98;53.91
60228;BME280;46091;46.512;6.626;2023-03-25T04:13:41;96826.16;;;13.99;54.01
60228;BME280;46091;46.512;6.626;2023-03-25T04:15:45;96827.63;;;13.95;54.10
60228;BME280;46091;46.512;6.626;2023-03-25T04:17:49;96839.47;;;13.92;53.88
60228;BME280;46091;46.512;6.626;2023-03-25T04:19:52;96840.94;;;13.88;53.84
60228;BME280;46091;46.512;6.626;2023-03-25T04:21:55;96838.50;;;13.87;54.12
60228;BME280;46091;46.512;6.626;2023-03-25T04:23:58;96835.47;;;13.83;54.07
60228;BME280;46091;46.512;6.626;2023-03-25T04:26:02;96840.78;;;13.83;53.96
60228;BME280;46091;46.512;6.626;2023-03-25T04:28:05;96840.16;;;13.81;53.98
60228;BME280;46091;46.512;6.626;2023-03-25T04:30:09;96841.00;;;13.82;53.92
60228;BME280;46091;46.512;6.626;2023-03-25T04:32:12;96839.75;;;13.84;53.64
60228;BME280;46091;46.512;6.626;2023-03-25T04:34:18;96846.09;;;13.83;53.90
60228;BME280;46091;46.512;6.626;2023-03-25T04:36:21;96853.03;;;13.84;53.76
60228;BME280;46091;46.512;6.626;2023-03-25T04:38:23;96867.34;;;13.83;53.67
60228;BME280;46091;46.512;6.626;2023-03-25T04:40:27;96858.13;;;13.86;53.85
60228;BME280;46091;46.512;6.626;2023-03-25T04:42:30;96873.88;;;13.87;53.64
60228;BME280;46091;46.512;6.626;2023-03-25T04:44:37;96873.88;;;13.87;53.89
60228;BME280;46091;46.512;6.626;2023-03-25T04:46:41;96883.69;;;13.87;53.67
60228;BME280;46091;46.512;6.626;2023-03-25T04:48:44;96884.50;;;13.87;53.53
60228;BME280;46091;46.512;6.626;2023-03-25T04:50:49;96883.69;;;13.87;53.73
60228;BME280;46091;46.512;6.626;2023-03-25T04:52:53;96883.28;;;13.83;53.41
60228;BME280;46091;46.512;6.626;2023-03-25T04:54:58;96889.81;;;13.81;53.57
60228;BME280;46091;46.512;6.626;2023-03-25T04:57:02;96884.72;;;13.79;53.46
60228;BME280;46091;46.512;6.626;2023-03-25T04:59:05;96893.50;;;13.80;53.67
60228;BME280;46091;46.512;6.626;2023-03-25T05:01:19;96892.53;;;13.74;53.38
60228;BME280;46091;46.512;6.626;2023-03-25T05:03:23;96900.50;;;13.74;53.34
60228;BME280;46091;46.512;6.626;2023-03-25T05:05:26;96900.91;;;13.71;53.27
60228;BME280;46091;46.512;6.626;2023-03-25T05:07:30;96904.56;;;13.70;53.36
60228;BME280;46091;46.512;6.626;2023-03-25T05:09:33;96909.88;;;13.70;53.38
60228;BME280;46091;46.512;6.626;2023-03-25T05:11:37;96920.94;;;13.74;53.48
60228;BME280;46091;46.512;6.626;2023-03-25T05:13:42;96918.06;;;13.75;53.17
60228;BME280;46091;46.512;6.626;2023-03-25T05:15:46;96913.56;;;13.76;53.08
60228;BME280;46091;46.512;6.626;2023-03-25T05:17:49;96905.38;;;13.77;53.26
60228;BME280;46091;46.512;6.626;2023-03-25T05:19:52;96908.47;;;13.74;53.06
60228;BME280;46091;46.512;6.626;2023-03-25T05:21:55;96898.66;;;13.68;53.32
60228;BME280;46091;46.512;6.626;2023-03-25T05:24:00;96898.06;;;13.66;53.16
60228;BME280;46091;46.512;6.626;2023-03-25T05:26:03;96896.44;;;13.65;53.15
60228;BME280;46091;46.512;6.626;2023-03-25T05:28:06;96903.38;;;13.66;52.81
60228;BME280;46091;46.512;6.626;2023-03-25T05:30:10;96910.09;;;13.68;52.81
60228;BME280;46091;46.512;6.626;2023-03-25T05:32:13;96913.41;;;13.71;52.88
60228;BME280;46091;46.512;6.626;2023-03-25T05:34:18;96909.88;;;13.70;52.94
60228;BME280;46091;46.512;6.626;2023-03-25T05:36:21;96909.06;;;13.69;52.71
60228;BME280;46091;46.512;6.626;2023-03-25T05:38:25;96911.72;;;13.69;53.03
60228;BME280;46091;46.512;6.626;2023-03-25T05:40:30;96903.97;;;13.68;52.62
60228;BME280;46091;46.512;6.626;2023-03-25T05:42:33;96898.06;;;13.66;52.61
60228;BME280;46091;46.512;6.626;2023-03-25T05:44:38;96878.88;;;13.64;52.73
60228;BME280;46091;46.512;6.626;2023-03-25T05:46:47;96884.19;;;13.64;53.02
60228;BME280;46091;46.512;6.626;2023-03-25T05:48:50;96886.63;;;13.65;52.78
60228;BME280;46091;46.512;6.626;2023-03-25T05:50:53;96883.16;;;13.65;52.84
60228;BME280;46091;46.512;6.626;2023-03-25T05:52:57;96888.25;;;13.66;52.87
60228;BME280;46091;46.512;6.626;2023-03-25T05:55:00;96887.81;;;13.69;53.13
60228;BME280;46091;46.512;6.626;2023-03-25T05:57:05;96884.97;;;13.71;52.97
60228;BME280;46091;46.512;6.626;2023-03-25T05:59:08;96882.94;;;13.73;52.99
60228;BME280;46091;46.512;6.626;2023-03-25T06:01:11;96887.63;;;13.71;53.09
60228;BME280;46091;46.512;6.626;2023-03-25T06:03:33;96890.28;;;13.71;53.17
60228;BME280;46091;46.512;6.626;2023-03-25T06:05:37;96894.78;;;13.71;53.17
60228;BME280;46091;46.512;6.626;2023-03-25T06:07:41;96901.31;;;13.68;53.11
60228;BME280;46091;46.512;6.626;2023-03-25T06:09:44;96894.97;;;13.69;52.90
60228;BME280;46091;46.512;6.626;2023-03-25T06:11:48;96894.78;;;13.71;52.91
60228;BME280;46091;46.512;6.626;2023-03-25T06:13:55;96889.66;;;13.69;53.06
60228;BME280;46091;46.512;6.626;2023-03-25T06:15:58;96888.03;;;13.68;53.12
60228;BME280;46091;46.512;6.626;2023-03-25T06:18:01;96882.31;;;13.71;52.95
60228;BME280;46091;46.512;6.626;2023-03-25T06:20:05;96877.81;;;13.72;52.93
60228;BME280;46091;46.512;6.626;2023-03-25T06:22:13;96877.63;;;13.73;52.91
60228;BME280;46091;46.512;6.626;2023-03-25T06:24:16;96885.38;;;13.75;53.12
60228;BME280;46091;46.512;6.626;2023-03-25T06:26:21;96886.56;;;13.79;52.79
60228;BME280;46091;46.512;6.626;2023-03-25T06:28:24;96876.38;;;13.76;52.65
60228;BME280;46091;46.512;6.626;2023-03-25T06:30:29;96874.34;;;13.71;52.95
60228;BME280;46091;46.512;6.626;2023-03-25T06:32:32;96870.25;;;13.68;53.03
60228;BME280;46091;46.512;6.626;2023-03-25T06:34:35;96873.53;;;13.71;53.04
60228;BME280;46091;46.512;6.626;2023-03-25T06:36:39;96874.75;;;13.75;52.80
60228;BME280;46091;46.512;6.626;2023-03-25T06:38:42;96875.13;;;13.78;53.02
60228;BME280;46091;46.512;6.626;2023-03-25T06:40:45;96866.13;;;13.79;52.65
60228;BME280;46091;46.512;6.626;2023-03-25T06:42:48;96855.50;;;13.79;52.72
60228;BME280;46091;46.512;6.626;2023-03-25T06:44:51;96858.34;;;13.84;52.73
60228;BME280;46091;46.512;6.626;2023-03-25T06:46:56;96861.59;;;13.86;52.52
60228;BME280;46091;46.512;6.626;2023-03-25T06:49:01;96859.53;;;13.88;52.78
60228;BME280;46091;46.512;6.626;2023-03-25T06:51:04;96860.16;;;13.90;52.35
60228;BME280;46091;46.512;6.626;2023-03-25T06:53:07;96864.44;;;13.91;52.48
60228;BME280;46091;46.512;6.626;2023-03-25T06:55:13;96870.56;;;13.92;52.32
60228;BME280;46091;46.512;6.626;2023-03-25T06:57:17;96866.88;;;13.93;52.53
60228;BME280;46091;46.512;6.626;2023-03-25T06:59:19;96864.84;;;13.95;52.24
60228;BME280;46091;46.512;6.626;2023-03-25T07:01:22;96869.34;;;13.94;52.21
60228;BME280;46091;46.512;6.626;2023-03-25T07:03:27;96874.44;;;13.96;52.29
60228;BME280;46091;46.512;6.626;2023-03-25T07:05:30;96870.97;;;13.95;52.27
60228;BME280;46091;46.512;6.626;2023-03-25T07:07:33;96877.31;;;13.94;52.42
60228;BME280;46091;46.512;6.626;2023-03-25T07:09:35;96870.97;;;13.95;52.32
60228;BME280;46091;46.512;6.626;2023-03-25T07:11:38;96861.97;;;13.96;52.44
60228;BME280;46091;46.512;6.626;2023-03-25T07:13:41;96870.97;;;13.95;52.36
60228;BME280;46091;46.512;6.626;2023-03-25T07:15:44;96859.31;;;13.96;52.26
60228;BME280;46091;46.512;6.626;2023-03-25T07:17:47;96858.66;;;14.01;52.39
60228;BME280;46091;46.512;6.626;2023-03-25T07:19:52;96854.97;;;14.02;52.36
60228;BME280;46091;46.512;6.626;2023-03-25T07:21:55;96866.41;;;14.03;52.32
60228;BME280;46091;46.512;6.626;2023-03-25T07:23:57;96861.09;;;14.03;52.16
60228;BME280;46091;46.512;6.626;2023-03-25T07:26:00;96863.16;;;14.01;51.97
60228;BME280;46091;46.512;6.626;2023-03-25T07:28:03;96868.03;;;14.04;52.26
60228;BME280;46091;46.512;6.626;2023-03-25T07:30:08;96863.34;;;14.06;52.16
60228;BME280;46091;46.512;6.626;2023-03-25T07:32:12;96865.19;;;14.05;51.71
60228;BME280;46091;46.512;6.626;2023-03-25T07:34:20;96865.81;;;14.01;52.07
60228;BME280;46091;46.512;6.626;2023-03-25T07:36:25;96867.03;;;14.05;51.99
60228;BME280;46091;46.512;6.626;2023-03-25T07:38:30;96860.94;;;13.97;51.64
60228;BME280;46091;46.512;6.626;2023-03-25T07:40:34;96872.53;;;14.03;51.81
60228;BME280;46091;46.512;6.626;2023-03-25T07:42:41;96861.97;;;13.96;51.97
60228;BME280;46091;46.512;6.626;2023-03-25T07:44:53;96870.16;;;13.95;51.74
60228;BME280;46091;46.512;6.626;2023-03-25T07:46:56;96853.19;;;13.89;51.77
60228;BME280;46091;46.512;6.626;2023-03-25T07:49:02;96860.78;;;13.86;51.76
60228;BME280;46091;46.512;6.626;2023-03-25T07:51:06;96857.94;;;13.81;52.04
60228;BME280;46091;46.512;6.626;2023-03-25T07:53:11;96868.75;;;13.86;51.84
60228;BME280;46091;46.512;6.626;2023-03-25T07:55:15;96870.38;;;13.87;52.00
60228;BME280;46091;46.512;6.626;2023-03-25T07:57:19;96873.47;;;13.84;52.00
60228;BME280;46091;46.512;6.626;2023-03-25T07:59:29;96877.13;;;13.89;51.74
60228;BME280;46091;46.512;6.626;2023-03-25T08:01:35;96864.03;;;13.88;51.70
60228;BME280;46091;46.512;6.626;2023-03-25T08:03:39;96870.16;;;13.88;51.82
60228;BME280;46091;46.512;6.626;2023-03-25T08:05:45;96876.09;;;13.90;51.76
60228;BME280;46091;46.512;6.626;2023-03-25T08:07:50;96877.97;;;13.83;52.02
60228;BME280;46091;46.512;6.626;2023-03-25T08:09:55;96875.72;;;13.80;52.14
60228;BME280;46091;46.512;6.626;2023-03-25T08:11:59;96890.63;;;13.88;52.05
60228;BME280;46091;46.512;6.626;2023-03-25T08:14:03;96883.31;;;13.77;51.92
60228;BME280;46091;46.512;6.626;2023-03-25T08:16:14;96891.06;;;13.85;52.15
60228;BME280;46091;46.512;6.626;2023-03-25T08:18:22;96887.38;;;13.86;52.06
60228;BME280;46091;46.512;6.626;2023-03-25T08:20:26;96884.91;;;13.84;52.05
60228;BME280;46091;46.512;6.626;2023-03-25T08:22:30;96879.41;;;13.86;52.00
60228;BME280;46091;46.512;6.626;2023-03-25T08:24:33;96885.06;;;13.96;51.90
60228;BME280;46091;46.512;6.626;2023-03-25T08:26:38;96881.16;;;13.98;52.35
60228;BME280;46091;46.512;6.626;2023-03-25T08:28:41;96889.75;;;14.01;51.93
60228;BME280;46091;46.512;6.626;2023-03-25T08:30:44;96878.34;;;13.93;51.87
60228;BME280;46091;46.512;6.626;2023-03-25T08:32:52;96884.25;;;13.95;52.16
60228;BME280;46091;46.512;6.626;2023-03-25T08:34:56;96883.41;;;14.02;52.19
60228;BME280;46091;46.512;6.626;2023-03-25T08:36:59;96884.00;;;14.04;51.93
60228;BME280;46091;46.512;6.626;2023-03-25T08:39:03;96872.53;;;14.03;52.30
60228;BME280;46091;46.512;6.626;2023-03-25T08:41:10;96879.91;;;14.01;52.35
60228;BME280;46091;46.512;6.626;2023-03-25T08:43:17;96892.19;;;14.02;52.43
60228;BME280;46091;46.512;6.626;2023-03-25T08:45:21;96893.84;;;13.96;52.44
60228;BME280;46091;46.512;6.626;2023-03-25T08:47:25;96907.75;;;13.98;52.52
60228;BME280;46091;46.512;6.626;2023-03-25T08:49:34;96913.72;;;13.87;52.66
60228;BME280;46091;46.512;6.626;2023-03-25T08:51:38;96919.03;;;13.87;52.61
60228;BME280;46091;46.512;6.626;2023-03-25T08:53:41;96915.94;;;13.90;52.66
60228;BME280;46091;46.512;6.626;2023-03-25T08:55:45;96929.44;;;13.89;52.96
60228;BME280;46091;46.512;6.626;2023-03-25T08:57:48;96931.91;;;13.90;52.70
60228;BME280;46091;46.512;6.626;2023-03-25T08:59:53;96933.75;;;13.90;52.75
60228;BME280;46091;46.512;6.626;2023-03-25T09:01:56;96933.53;;;13.91;53.03
60228;BME280;46091;46.512;6.626;2023-03-25T09:04:02;96942.13;;;13.93;52.84
60228;BME280;46091;46.512;6.626;2023-03-25T09:06:06;96936.41;;;13.90;52.89
60228;BME280;46091;46.512;6.626;2023-03-25T09:08:09;96940.91;;;13.89;52.89
60228;BME280;46091;46.512;6.626;2023-03-25T09:10:12;96940.91;;;13.89;52.98
60228;BME280;46091;46.512;6.626;2023-03-25T09:12:15;96944.41;;;13.83;52.97
60228;BME280;46091;46.512;6.626;2023-03-25T09:14:17;96950.13;;;13.80;53.10
60228;BME280;46091;46.512;6.626;2023-03-25T09:16:22;96943.00;;;13.74;53.12
60228;BME280;46091;46.512;6.626;2023-03-25T09:18:25;96938.50;;;13.68;53.38
60228;BME280;46091;46.512;6.626;2023-03-25T09:20:28;96946.31;;;13.63;53.34
60228;BME280;46091;46.512;6.626;2023-03-25T09:22:31;96948.34;;;13.61;53.04
60228;BME280;46091;46.512;6.626;2023-03-25T09:24:34;96947.53;;;13.54;53.31
60228;BME280;46091;46.512;6.626;2023-03-25T09:26:37;96956.16;;;13.49;53.12
60228;BME280;46091;46.512;6.626;2023-03-25T09:28:40;96944.72;;;13.49;53.26
60228;BME280;46091;46.512;6.626;2023-03-25T09:30:43;96953.69;;;13.48;53.17
60228;BME280;46091;46.512;6.626;2023-03-25T09:32:47;96954.09;;;13.45;53.17
60228;BME280;46091;46.512;6.626;2023-03-25T09:34:50;96956.34;;;13.41;53.31
60228;BME280;46091;46.512;6.626;2023-03-25T09:36:53;96947.56;;;13.40;53.41
60228;BME280;46091;46.512;6.626;2023-03-25T09:38:56;96942.22;;;13.47;53.42
60228;BME280;46091;46.512;6.626;2023-03-25T09:41:02;96940.41;;;13.48;53.50
60228;BME280;46091;46.512;6.626;2023-03-25T09:43:23;96945.53;;;13.49;53.15
60228;BME280;46091;46.512;6.626;2023-03-25T09:45:34;96946.94;;;13.52;53.50
60228;BME280;46091;46.512;6.626;2023-03-25T09:47:39;96944.25;;;13.58;53.31
60228;BME280;46091;46.512;6.626;2023-03-25T09:49:47;96950.00;;;13.62;53.31
60228;BME280;46091;46.512;6.626;2023-03-25T09:51:54;96946.50;;;13.61;53.21
60228;BME280;46091;46.512;6.626;2023-03-25T09:54:01;96952.22;;;13.65;53.11
60228;BME280;46091;46.512;6.626;2023-03-25T09:56:10;96943.22;;;13.66;53.51
60228;BME280;46091;46.512;6.626;2023-03-25T09:58:28;96947.94;;;13.64;53.13
60228;BME280;46091;46.512;6.626;2023-03-25T10:00:35;96951.41;;;13.64;53.50
60228;BME280;46091;46.512;6.626;2023-03-25T10:02:42;96955.69;;;13.65;53.09
60228;BME280;46091;46.512;6.626;2023-03-25T10:04:58;96960.19;;;13.65;52.97
60228;BME280;46091;46.512;6.626;2023-03-25T10:07:08;96958.13;;;13.67;52.97
60228;BME280;46091;46.512;6.626;2023-03-25T10:09:30;96949.75;;;13.70;52.92
60228;BME280;46091;46.512;6.626;2023-03-25T10:11:42;96952.41;;;13.70;52.97
60228;BME280;46091;46.512;6.626;2023-03-25T10:13:54;96954.06;;;13.71;52.83
60228;BME280;46091;46.512;6.626;2023-03-25T10:16:06;96947.50;;;13.74;52.92
60228;BME280;46091;46.512;6.626;2023-03-25T10:18:26;96947.50;;;13.74;52.89
60228;BME280;46091;46.512;6.626;2023-03-25T10:20:43;96945.66;;;13.74;52.53
60228;BME280;46091;46.512;6.626;2023-03-25T10:22:59;96944.22;;;13.78;52.48
60228;BME280;46091;46.512;6.626;2023-03-25T10:25:11;96933.56;;;13.78;52.69
60228;BME280;46091;46.512;6.626;2023-03-25T10:27:20;96941.75;;;13.83;52.65
60228;BME280;46091;46.512;6.626;2023-03-25T10:29:28;96943.97;;;13.86;52.45
60228;BME280;46091;46.512;6.626;2023-03-25T10:31:37;96948.88;;;13.89;52.13
60228;BME280;46091;46.512;6.626;2023-03-25T10:33:45;96946.81;;;13.91;52.47
60228;BME280;46091;46.512;6.626;2023-03-25T10:35:54;96947.44;;;13.93;52.15
60228;BME280;46091;46.512;6.626;2023-03-25T10:38:01;96953.56;;;13.94;52.07
60228;BME280;46091;46.512;6.626;2023-03-25T10:40:20;96955.59;;;13.92;52.29
60228;BME280;46091;46.512;6.626;2023-03-25T10:42:29;96949.25;;;13.93;52.26
60228;BME280;46091;46.512;6.626;2023-03-25T10:44:35;96947.44;;;13.93;52.01
60228;BME280;46091;46.512;6.626;2023-03-25T10:46:39;96945.63;;;13.87;52.00
60228;BME280;46091;46.512;6.626;2023-03-25T10:48:49;96952.78;;;13.87;51.90
60228;BME280;46091;46.512;6.626;2023-03-25T10:51:01;96953.38;;;13.89;52.04
60228;BME280;46091;46.512;6.626;2023-03-25T10:53:14;96957.03;;;13.94;51.86
60228;BME280;46091;46.512;6.626;2023-03-25T10:55:23;96948.44;;;13.99;51.80
60228;BME280;46091;46.512;6.626;2023-03-25T10:57:28;96947.78;;;14.04;51.71
60228;BME280;46091;46.512;6.626;2023-03-25T10:59:34;96946.56;;;14.06;51.90
60228;BME280;46091;46.512;6.626;2023-03-25T11:01:40;96953.91;;;14.11;51.80
60228;BME280;46091;46.512;6.626;2023-03-25T11:03:46;96957.38;;;14.11;51.92
60228;BME280;46091;46.512;6.626;2023-03-25T11:05:52;96964.09;;;14.14;51.49
60228;BME280;46091;46.512;6.626;2023-03-25T11:07:57;96964.09;;;14.14;51.42
60228;BME280;46091;46.512;6.626;2023-03-25T11:10:21;96978.22;;;14.14;51.49
60228;BME280;46091;46.512;6.626;2023-03-25T11:12:24;96987.44;;;14.12;51.44